createdAt,value
2023-03-08T00:01:36.800Z,10.95
2023-03-08T00:04:03.697Z,9.75
2023-03-08T00:06:30.824Z,11.00
2023-03-08T00:08:59.235Z,11.10
2023-03-08T00:11:26.828Z,8.50
2023-03-08T00:13:53.966Z,8.85
2023-03-08T00:16:20.825Z,9.52
2023-03-08T00:18:48.447Z,9.50
2023-03-08T00:21:18.523Z,12.18
2023-03-08T00:26:13.463Z,8.02
2023-03-08T00:28:40.686Z,9.90
2023-03-08T00:31:11.220Z,7.65
2023-03-08T00:33:38.674Z,8.32
2023-03-08T00:36:06.291Z,8.85
2023-03-08T00:38:35.474Z,12.02
2023-03-08T00:41:02.768Z,13.48
2023-03-08T00:43:32.440Z,9.32
2023-03-08T00:46:03.486Z,7.90
2023-03-08T00:48:30.256Z,12.10
2023-03-08T00:50:57.064Z,8.05
2023-03-08T00:53:24.151Z,7.45
2023-03-08T00:55:54.780Z,7.20
2023-03-08T00:58:23.638Z,11.20
2023-03-08T01:00:51.013Z,9.23
2023-03-08T01:03:18.263Z,8.32
2023-03-08T01:05:48.136Z,8.40
2023-03-08T01:08:16.698Z,8.50
2023-03-08T01:10:50.033Z,12.75
2023-03-08T01:13:18.116Z,9.32
2023-03-08T01:15:44.895Z,8.80
2023-03-08T01:18:11.726Z,8.02
2023-03-08T01:20:38.459Z,7.38
2023-03-08T01:23:05.831Z,6.97
2023-03-08T01:25:32.585Z,7.47
2023-03-08T01:27:59.389Z,8.38
2023-03-08T01:30:27.090Z,6.88
2023-03-08T01:32:54.015Z,7.45
2023-03-08T01:35:20.847Z,8.80
2023-03-08T01:37:53.704Z,7.35
2023-03-08T01:40:22.580Z,7.10
2023-03-08T01:42:49.580Z,7.32
2023-03-08T01:45:53.808Z,6.75
2023-03-08T01:48:28.134Z,11.63
2023-03-08T01:53:31.454Z,6.88
2023-03-08T01:55:58.416Z,9.70
2023-03-08T01:58:26.184Z,7.93
2023-03-08T02:00:53.063Z,7.35
2023-03-08T02:03:20.383Z,8.02
2023-03-08T02:05:49.181Z,7.30
2023-03-08T02:08:19.955Z,8.40
2023-03-08T02:10:47.460Z,8.85
2023-03-08T02:13:15.949Z,7.85
2023-03-08T02:15:44.411Z,7.60
2023-03-08T02:18:11.774Z,7.10
2023-03-08T02:20:41.227Z,9.82
2023-03-08T02:23:23.662Z,7.63
2023-03-08T02:26:03.878Z,10.55
2023-03-08T02:28:32.447Z,13.35
2023-03-08T02:30:59.419Z,8.77
2023-03-08T02:33:26.350Z,8.70
2023-03-08T02:35:53.481Z,9.68
2023-03-08T02:38:21.994Z,9.10
2023-03-08T02:40:51.655Z,10.35
2023-03-08T02:43:19.091Z,9.20
2023-03-08T02:45:46.305Z,9.50
2023-03-08T02:48:13.861Z,11.10
2023-03-08T02:50:40.713Z,8.80
2023-03-08T02:53:08.364Z,10.20
2023-03-08T02:55:40.014Z,8.30
2023-03-08T02:58:10.781Z,10.50
2023-03-08T03:00:38.723Z,12.85
2023-03-08T03:03:05.692Z,10.77
2023-03-08T03:05:32.614Z,13.18
2023-03-08T03:08:02.466Z,10.43
2023-03-08T03:10:30.192Z,11.50
2023-03-08T03:12:57.161Z,9.55
2023-03-08T03:15:28.005Z,9.98
2023-03-08T03:17:58.357Z,10.90
2023-03-08T03:20:26.032Z,11.00
2023-03-08T03:22:52.867Z,9.32
2023-03-08T03:25:24.375Z,10.40
2023-03-08T03:27:51.608Z,9.30
2023-03-08T03:30:19.086Z,11.65
2023-03-08T03:32:46.474Z,8.73
2023-03-08T03:35:17.045Z,9.23
2023-03-08T03:37:44.173Z,10.15
2023-03-08T03:40:14.344Z,10.02
2023-03-08T03:42:43.712Z,11.63
2023-03-08T03:45:18.515Z,9.50
2023-03-08T03:47:45.901Z,11.82
2023-03-08T03:50:12.884Z,11.30
2023-03-08T03:52:50.092Z,19.60
2023-03-08T03:55:17.089Z,11.00
2023-03-08T03:57:45.057Z,15.60
2023-03-08T04:00:16.306Z,8.63
2023-03-08T04:02:49.651Z,15.10
2023-03-08T04:05:18.977Z,12.35
2023-03-08T04:07:50.057Z,9.52
2023-03-08T04:10:18.705Z,12.93
2023-03-08T04:12:49.595Z,11.30
2023-03-08T04:15:18.473Z,9.73
2023-03-08T04:17:45.996Z,11.13
2023-03-08T04:20:14.629Z,10.27
2023-03-08T04:22:47.363Z,10.52
2023-03-08T04:25:20.800Z,10.85
2023-03-08T04:27:56.113Z,9.18
2023-03-08T04:30:22.986Z,12.05
2023-03-08T04:32:51.633Z,9.75
2023-03-08T04:35:21.328Z,12.43
2023-03-08T04:37:51.792Z,13.18
2023-03-08T04:40:21.877Z,13.55
2023-03-08T04:42:54.915Z,12.05
2023-03-08T04:45:26.720Z,13.75
2023-03-08T04:47:56.312Z,12.10
2023-03-08T04:50:23.773Z,13.68
2023-03-08T04:52:52.654Z,12.48
2023-03-08T04:55:19.534Z,12.40
2023-03-08T04:57:46.721Z,11.73
2023-03-08T05:00:14.096Z,12.77
2023-03-08T05:02:42.853Z,14.33
2023-03-08T05:05:14.337Z,12.23
2023-03-08T05:07:41.969Z,16.13
2023-03-08T05:10:09.314Z,14.38
2023-03-08T05:12:36.163Z,12.82
2023-03-08T05:15:05.188Z,19.58
2023-03-08T05:17:32.082Z,10.75
2023-03-08T05:19:59.198Z,13.98
2023-03-08T05:22:37.132Z,13.27
2023-03-08T05:25:08.657Z,11.13
2023-03-08T05:27:36.075Z,13.85
2023-03-08T05:30:05.693Z,19.83
2023-03-08T05:32:33.110Z,15.90
2023-03-08T05:34:59.989Z,16.33
2023-03-08T05:37:33.577Z,16.60
2023-03-08T05:40:06.058Z,14.10
2023-03-08T05:42:35.109Z,14.77
2023-03-08T05:45:06.327Z,12.15
2023-03-08T05:47:37.722Z,11.80
2023-03-08T05:50:07.882Z,12.55
2023-03-08T05:52:37.132Z,16.13
2023-03-08T05:55:04.317Z,15.55
2023-03-08T05:57:31.207Z,16.77
2023-03-08T05:59:58.537Z,19.35
2023-03-08T06:02:25.624Z,13.52
2023-03-08T06:04:54.693Z,14.77
2023-03-08T06:07:23.759Z,15.27
2023-03-08T06:09:56.443Z,16.75
2023-03-08T06:12:24.191Z,14.98
2023-03-08T06:14:54.622Z,16.17
2023-03-08T06:19:52.402Z,17.83
2023-03-08T06:22:19.581Z,15.93
2023-03-08T06:24:49.962Z,14.13
2023-03-08T06:27:23.248Z,15.07
2023-03-08T06:29:52.319Z,15.20
2023-03-08T06:32:21.280Z,18.50
2023-03-08T06:34:48.232Z,18.42
2023-03-08T06:37:15.273Z,19.33
2023-03-08T06:39:42.322Z,22.52
2023-03-08T06:42:09.300Z,19.05
2023-03-08T06:44:37.610Z,16.30
2023-03-08T06:47:05.955Z,19.33
2023-03-08T06:49:32.820Z,18.13
2023-03-08T06:51:59.675Z,18.27
2023-03-08T06:54:27.777Z,16.42
2023-03-08T06:56:54.586Z,15.38
2023-03-08T06:59:21.418Z,15.75
2023-03-08T07:01:48.313Z,20.10
2023-03-08T07:04:15.201Z,19.80
2023-03-08T07:06:42.187Z,14.73
2023-03-08T07:09:09.130Z,14.23
2023-03-08T07:11:35.997Z,12.63
2023-03-08T07:14:02.890Z,19.73
2023-03-08T07:16:29.852Z,12.65
2023-03-08T07:18:57.175Z,14.43
2023-03-08T07:21:24.634Z,19.63
2023-03-08T07:23:53.200Z,15.68
2023-03-08T07:26:20.078Z,13.70
2023-03-08T07:28:51.388Z,16.02
2023-03-08T07:31:18.840Z,15.32
2023-03-08T07:33:45.992Z,11.15
2023-03-08T07:36:13.589Z,13.23
2023-03-08T07:38:40.477Z,16.58
2023-03-08T07:41:07.380Z,16.45
2023-03-08T07:43:34.439Z,14.10
2023-03-08T07:46:09.694Z,13.85
2023-03-08T07:48:36.831Z,12.15
2023-03-08T07:51:09.629Z,11.50
2023-03-08T07:53:37.817Z,14.93
2023-03-08T07:56:05.554Z,9.90
2023-03-08T07:58:32.495Z,9.90
2023-03-08T08:00:59.404Z,16.17
2023-03-08T08:03:26.605Z,17.80
2023-03-08T08:05:53.499Z,11.38
2023-03-08T08:08:20.519Z,11.75
2023-03-08T08:10:47.371Z,16.45
2023-03-08T08:13:14.421Z,15.82
2023-03-08T08:15:41.296Z,13.77
2023-03-08T08:18:08.292Z,10.45
2023-03-08T08:20:35.389Z,20.83
2023-03-08T08:23:02.258Z,14.43
2023-03-08T08:25:29.173Z,9.40
2023-03-08T08:27:56.142Z,12.73
2023-03-08T08:30:23.037Z,10.68
2023-03-08T08:32:49.953Z,13.05
2023-03-08T08:35:17.086Z,13.35
2023-03-08T08:37:43.958Z,12.68
2023-03-08T08:40:12.301Z,13.25
2023-03-08T08:42:39.212Z,10.32
2023-03-08T08:45:06.790Z,14.93
2023-03-08T08:47:33.819Z,11.38
2023-03-08T08:50:00.679Z,14.90
2023-03-08T08:52:27.520Z,12.50
2023-03-08T08:54:54.413Z,9.30
2023-03-08T08:57:21.436Z,8.98
2023-03-08T08:59:48.314Z,10.98
2023-03-08T09:02:15.561Z,9.02
2023-03-08T09:04:42.663Z,12.32
2023-03-08T09:07:11.414Z,10.23
2023-03-08T09:09:38.166Z,11.85
2023-03-08T09:12:05.383Z,11.52
2023-03-08T09:14:32.168Z,12.30
2023-03-08T09:16:59.101Z,11.60
2023-03-08T09:19:26.106Z,10.35
2023-03-08T09:21:53.424Z,9.30
2023-03-08T09:24:20.288Z,15.00
2023-03-08T09:26:47.185Z,11.00
2023-03-08T09:29:14.136Z,11.43
2023-03-08T09:31:42.695Z,12.70
2023-03-08T09:34:11.590Z,9.13
2023-03-08T09:36:41.600Z,10.82
2023-03-08T09:41:44.907Z,10.50
2023-03-08T09:44:44.076Z,10.18
2023-03-08T09:47:21.756Z,9.40
2023-03-08T09:49:52.198Z,9.80
2023-03-08T09:52:22.005Z,13.52
2023-03-08T09:54:50.977Z,11.48
2023-03-08T09:57:29.357Z,8.35
2023-03-08T09:59:59.161Z,9.43
2023-03-08T10:02:46.932Z,14.23
2023-03-08T10:05:36.437Z,8.93
2023-03-08T10:08:11.350Z,11.38
2023-03-08T10:10:53.618Z,8.25
2023-03-08T10:13:41.988Z,11.00
2023-03-08T10:16:26.140Z,7.20
2023-03-08T10:19:00.032Z,6.55
2023-03-08T10:21:28.261Z,7.53
2023-03-08T10:24:07.371Z,11.60
2023-03-08T10:26:34.813Z,9.27
2023-03-08T10:29:01.618Z,8.15
2023-03-08T10:31:30.804Z,7.35
2023-03-08T10:34:07.332Z,7.97
2023-03-08T10:36:34.863Z,7.15
2023-03-08T10:39:11.446Z,9.93
2023-03-08T10:41:44.865Z,7.25
2023-03-08T10:44:42.825Z,10.05
2023-03-08T10:47:33.202Z,6.90
2023-03-08T10:50:12.553Z,11.35
2023-03-08T10:52:39.619Z,8.05
2023-03-08T10:55:09.550Z,6.90
2023-03-08T10:57:37.589Z,6.97
2023-03-08T11:00:33.501Z,8.60
2023-03-08T11:03:17.389Z,8.85
2023-03-08T11:06:14.228Z,6.93
2023-03-08T11:08:55.615Z,7.97
2023-03-08T11:11:22.700Z,6.93
2023-03-08T11:13:52.214Z,9.18
2023-03-08T11:16:22.190Z,7.18
2023-03-08T11:19:00.920Z,8.30
2023-03-08T11:21:43.864Z,6.65
2023-03-08T11:24:18.892Z,6.68
2023-03-08T11:27:41.163Z,6.32
2023-03-08T11:30:13.933Z,8.45
2023-03-08T11:32:41.216Z,5.78
2023-03-08T11:35:17.308Z,6.97
2023-03-08T11:37:50.895Z,6.30
2023-03-08T11:41:04.450Z,7.93
2023-03-08T11:43:46.591Z,6.18
2023-03-08T11:46:25.308Z,5.70
2023-03-08T11:49:01.962Z,8.88
2023-03-08T11:51:40.552Z,5.95
2023-03-08T11:54:16.217Z,6.45
2023-03-08T11:56:45.737Z,7.00
2023-03-08T11:59:37.205Z,7.40
2023-03-08T12:02:06.797Z,6.28
2023-03-08T12:04:55.092Z,6.32
2023-03-08T12:07:25.138Z,5.80
2023-03-08T12:09:59.022Z,6.25
2023-03-08T12:12:35.935Z,7.07
2023-03-08T12:15:02.935Z,6.10
2023-03-08T12:17:35.610Z,6.40
2023-03-08T12:20:08.305Z,6.45
2023-03-08T12:22:46.164Z,6.43
2023-03-08T12:25:22.367Z,6.18
2023-03-08T12:28:20.719Z,5.38
2023-03-08T12:31:26.589Z,7.70
2023-03-08T12:33:55.211Z,5.13
2023-03-08T12:36:22.861Z,7.90
2023-03-08T12:38:56.694Z,9.15
2023-03-08T12:41:30.010Z,5.35
2023-03-08T12:44:24.569Z,6.55
2023-03-08T12:47:02.711Z,6.28
2023-03-08T12:49:37.855Z,7.27
2023-03-08T12:52:20.128Z,6.63
2023-03-08T12:55:09.276Z,6.28
2023-03-08T12:57:45.473Z,6.82
2023-03-08T13:00:35.163Z,7.00
2023-03-08T13:03:25.181Z,6.55
2023-03-08T13:05:52.380Z,6.72
2023-03-08T13:08:43.299Z,8.77
2023-03-08T13:11:15.033Z,7.45
2023-03-08T13:14:02.283Z,5.65
2023-03-08T13:16:40.032Z,9.40
2023-03-08T13:19:21.311Z,6.47
2023-03-08T13:21:54.214Z,6.72
2023-03-08T13:24:37.291Z,6.05
2023-03-08T13:27:28.595Z,5.68
2023-03-08T13:30:18.138Z,5.88
2023-03-08T13:32:45.369Z,6.38
2023-03-08T13:35:16.326Z,5.47
2023-03-08T13:37:43.408Z,6.05
2023-03-08T13:40:19.791Z,5.75
2023-03-08T13:42:57.015Z,5.90
2023-03-08T13:45:25.034Z,5.38
2023-03-08T13:47:53.330Z,5.47
2023-03-08T13:50:48.079Z,5.05
2023-03-08T13:53:22.740Z,5.53
2023-03-08T13:55:53.429Z,5.30
2023-03-08T13:58:32.349Z,5.28
2023-03-08T14:01:22.659Z,5.13
2023-03-08T14:03:50.834Z,4.90
2023-03-08T14:06:30.333Z,5.10
2023-03-08T14:09:00.656Z,5.00
2023-03-08T14:11:33.928Z,5.43
2023-03-08T14:14:04.759Z,5.75
2023-03-08T14:16:37.515Z,5.30
2023-03-08T14:19:16.553Z,5.32
2023-03-08T14:21:55.611Z,7.10
2023-03-08T14:24:28.232Z,7.40
2023-03-08T14:27:00.531Z,4.20
2023-03-08T14:29:29.894Z,5.05
2023-03-08T14:32:00.813Z,5.20
2023-03-08T14:34:29.683Z,5.15
2023-03-08T14:37:11.833Z,5.70
2023-03-08T14:39:43.080Z,5.55
2023-03-08T14:42:49.605Z,4.53
2023-03-08T14:45:22.967Z,6.65
2023-03-08T14:47:58.324Z,5.95
2023-03-08T14:50:28.295Z,6.72
2023-03-08T14:52:57.749Z,6.68
2023-03-08T14:55:27.610Z,7.20
2023-03-08T14:58:09.910Z,6.18
2023-03-08T15:00:37.178Z,5.38
2023-03-08T15:03:04.019Z,6.03
2023-03-08T15:05:31.428Z,6.05
2023-03-08T15:08:00.234Z,5.30
2023-03-08T15:10:34.012Z,6.30
2023-03-08T15:13:01.157Z,5.97
2023-03-08T15:15:28.055Z,5.95
2023-03-08T15:17:55.033Z,5.00
2023-03-08T15:20:22.443Z,5.78
2023-03-08T15:22:53.203Z,5.25
2023-03-08T15:25:27.913Z,4.88
2023-03-08T15:27:55.262Z,5.32
2023-03-08T15:30:25.686Z,5.30
2023-03-08T15:32:54.508Z,4.75
2023-03-08T15:35:22.151Z,4.93
2023-03-08T15:37:49.481Z,5.78
2023-03-08T15:40:22.279Z,5.45
2023-03-08T15:42:49.063Z,6.18
2023-03-08T15:45:16.275Z,9.05
2023-03-08T15:47:43.509Z,4.60
2023-03-08T15:50:16.372Z,4.93
2023-03-08T15:52:44.095Z,7.07
2023-03-08T15:55:14.780Z,5.35
2023-03-08T15:57:42.212Z,5.03
2023-03-08T16:00:12.637Z,6.93
2023-03-08T16:02:40.514Z,6.45
2023-03-08T16:05:09.570Z,5.10
2023-03-08T16:07:36.967Z,5.20
2023-03-08T16:10:05.741Z,6.10
2023-03-08T16:12:32.605Z,4.95
2023-03-08T16:14:59.555Z,6.32
2023-03-08T16:17:28.871Z,5.43
2023-03-08T16:19:55.833Z,12.00
2023-03-08T16:22:23.022Z,9.18
2023-03-08T16:24:49.947Z,7.65
2023-03-08T16:27:16.858Z,5.53
2023-03-08T16:29:43.734Z,5.97
2023-03-08T16:32:15.172Z,6.68
2023-03-08T16:34:42.058Z,7.28
2023-03-08T16:37:08.885Z,6.50
2023-03-08T16:39:35.739Z,6.45
2023-03-08T16:42:02.719Z,8.50
2023-03-08T16:44:30.616Z,7.95
2023-03-08T16:46:57.644Z,7.53
2023-03-08T16:49:28.573Z,6.18
2023-03-08T16:51:56.203Z,6.20
2023-03-08T16:54:23.370Z,6.60
2023-03-08T16:56:50.734Z,7.93
2023-03-08T16:59:17.960Z,5.70
2023-03-08T17:01:45.022Z,6.25
2023-03-08T17:04:11.966Z,7.47
2023-03-08T17:06:39.516Z,6.38
2023-03-08T17:09:06.469Z,6.38
2023-03-08T17:11:35.799Z,6.43
2023-03-08T17:14:07.836Z,5.82
2023-03-08T17:16:35.779Z,6.20
2023-03-08T17:19:05.731Z,6.68
2023-03-08T17:24:07.997Z,6.60
2023-03-08T17:26:40.354Z,5.88
2023-03-08T17:29:07.443Z,5.78
2023-03-08T17:31:34.354Z,8.38
2023-03-08T17:34:01.382Z,6.63
2023-03-08T17:36:28.438Z,6.07
2023-03-08T17:38:55.818Z,6.18
2023-03-08T17:41:23.279Z,5.95
2023-03-08T17:43:50.397Z,4.95
2023-03-08T17:46:23.066Z,5.68
2023-03-08T17:48:53.454Z,5.50
2023-03-08T17:51:30.124Z,6.38
2023-03-08T17:53:58.178Z,6.10
2023-03-08T17:56:29.703Z,6.47
2023-03-08T17:58:58.537Z,6.43
2023-03-08T18:01:27.716Z,6.97
2023-03-08T18:03:55.661Z,7.05
2023-03-08T18:06:29.813Z,6.88
2023-03-08T18:08:57.914Z,8.45
2023-03-08T18:11:25.118Z,6.55
2023-03-08T18:13:52.850Z,10.63
2023-03-08T18:16:21.269Z,6.40
2023-03-08T18:18:49.928Z,6.63
2023-03-08T18:21:20.794Z,7.05
2023-03-08T18:23:47.953Z,6.82
2023-03-08T18:26:17.077Z,7.15
2023-03-08T18:28:44.109Z,6.85
2023-03-08T18:31:15.919Z,7.25
2023-03-08T18:33:42.913Z,6.20
2023-03-08T18:36:09.935Z,6.43
2023-03-08T18:38:36.984Z,7.00
2023-03-08T18:41:25.838Z,7.50
2023-03-08T18:43:55.017Z,7.18
2023-03-08T18:46:29.301Z,6.30
2023-03-08T18:49:06.958Z,6.72
2023-03-08T18:51:36.347Z,7.40
2023-03-08T18:54:03.617Z,7.78
2023-03-08T18:56:31.367Z,7.88
2023-03-08T18:59:00.453Z,6.60
2023-03-08T19:01:29.367Z,8.17
2023-03-08T19:03:58.146Z,6.43
2023-03-08T19:06:25.362Z,6.20
2023-03-08T19:08:52.146Z,5.90
2023-03-08T19:11:20.106Z,8.73
2023-03-08T19:13:47.843Z,6.40
2023-03-08T19:16:35.813Z,7.22
2023-03-08T19:19:12.353Z,7.13
2023-03-08T19:21:42.441Z,7.82
2023-03-08T19:24:12.361Z,6.78
2023-03-08T19:26:41.273Z,8.05
2023-03-08T19:29:13.923Z,6.95
2023-03-08T19:32:05.485Z,7.97
2023-03-08T19:34:37.715Z,8.18
2023-03-08T19:37:06.146Z,8.43
2023-03-08T19:39:35.587Z,8.13
2023-03-08T19:42:14.520Z,8.07
2023-03-08T19:44:41.480Z,9.25
2023-03-08T19:47:09.566Z,10.95
2023-03-08T19:49:38.821Z,7.63
2023-03-08T19:52:07.984Z,8.52
2023-03-08T19:54:34.969Z,8.55
2023-03-08T19:57:02.660Z,8.43
2023-03-08T19:59:29.832Z,8.30
2023-03-08T20:01:57.361Z,8.68
2023-03-08T20:04:25.026Z,8.57
2023-03-08T20:06:52.284Z,7.47
2023-03-08T20:09:21.812Z,8.38
2023-03-08T20:11:53.203Z,10.05
2023-03-08T20:14:20.748Z,9.02
2023-03-08T20:16:48.032Z,8.23
2023-03-08T20:19:15.064Z,9.52
2023-03-08T20:21:41.882Z,9.02
2023-03-08T20:24:09.125Z,8.80
2023-03-08T20:26:38.051Z,10.80
2023-03-08T20:29:05.501Z,8.70
2023-03-08T20:31:32.849Z,7.90
2023-03-08T20:34:00.145Z,7.82
2023-03-08T20:36:28.527Z,7.38
2023-03-08T20:38:57.943Z,8.20
2023-03-08T20:41:26.962Z,8.20
2023-03-08T20:43:56.793Z,9.70
2023-03-08T20:46:29.664Z,7.95
2023-03-08T20:48:57.100Z,7.72
2023-03-08T20:51:24.420Z,8.02
2023-03-08T20:53:53.355Z,8.02
2023-03-08T20:56:21.948Z,8.40
2023-03-08T20:58:48.887Z,8.05
2023-03-08T21:01:27.863Z,8.68
2023-03-08T21:03:54.911Z,10.17
2023-03-08T21:06:25.158Z,8.70
2023-03-08T21:08:52.424Z,10.20
2023-03-08T21:11:20.698Z,8.82
2023-03-08T21:13:49.346Z,9.27
2023-03-08T21:16:18.038Z,10.40
2023-03-08T21:18:49.190Z,9.38
2023-03-08T21:21:27.445Z,10.50
2023-03-08T21:24:00.042Z,10.20
2023-03-08T21:26:28.615Z,11.35
2023-03-08T21:28:57.452Z,9.30
2023-03-08T21:31:25.191Z,10.90
2023-03-08T21:33:53.622Z,12.68
2023-03-08T21:36:21.005Z,11.25
2023-03-08T21:38:54.965Z,10.77
2023-03-08T21:41:27.464Z,10.23
2023-03-08T21:43:54.534Z,12.00
2023-03-08T21:46:21.472Z,11.45
2023-03-08T21:48:48.514Z,12.77
2023-03-08T21:51:15.797Z,13.90
2023-03-08T21:53:43.581Z,11.25
2023-03-08T21:56:13.251Z,14.95
2023-03-08T21:58:40.647Z,17.08
2023-03-08T22:01:17.104Z,14.13
2023-03-08T22:03:43.961Z,12.25
2023-03-08T22:06:10.734Z,14.88
2023-03-08T22:08:37.591Z,11.30
2023-03-08T22:11:06.207Z,11.23
2023-03-08T22:13:33.156Z,12.30
2023-03-08T22:16:00.100Z,12.90
2023-03-08T22:18:27.038Z,11.27
2023-03-08T22:20:54.771Z,17.70
2023-03-08T22:23:21.937Z,13.60
2023-03-08T22:25:48.942Z,14.77
2023-03-08T22:28:16.005Z,11.00
2023-03-08T22:30:42.927Z,13.77
2023-03-08T22:33:09.835Z,13.45
2023-03-08T22:35:37.045Z,13.63
2023-03-08T22:38:04.536Z,14.38
2023-03-08T22:40:31.564Z,11.52
2023-03-08T22:42:58.443Z,12.27
2023-03-08T22:45:25.290Z,10.02
2023-03-08T22:47:52.443Z,10.43
2023-03-08T22:50:19.308Z,8.90
2023-03-08T22:52:46.128Z,11.00
2023-03-08T22:55:12.989Z,12.27
2023-03-08T22:57:39.885Z,12.90
2023-03-08T23:00:14.528Z,9.32
2023-03-08T23:02:42.730Z,8.70
2023-03-08T23:05:18.795Z,13.45
2023-03-08T23:07:46.383Z,9.30
2023-03-08T23:10:14.863Z,8.85
2023-03-08T23:12:42.302Z,10.23
2023-03-08T23:15:09.873Z,8.82
2023-03-08T23:17:36.740Z,10.57
2023-03-08T23:20:04.557Z,8.70
2023-03-08T23:22:31.642Z,7.57
2023-03-08T23:24:58.498Z,10.30
2023-03-08T23:27:25.374Z,19.80
2023-03-08T23:29:53.055Z,12.52
2023-03-08T23:32:20.066Z,9.73
2023-03-08T23:34:46.917Z,11.10
2023-03-08T23:37:13.889Z,8.20
2023-03-08T23:39:40.674Z,10.23
2023-03-08T23:42:07.685Z,7.40
2023-03-08T23:44:34.535Z,6.55
2023-03-08T23:47:01.489Z,6.68
2023-03-08T23:49:28.338Z,7.05
2023-03-08T23:51:55.138Z,9.02
2023-03-08T23:54:21.953Z,8.27
2023-03-08T23:56:48.930Z,10.20
2023-03-08T23:59:21.120Z,9.15
